createdAt,value
2023-05-21T00:00:42.151Z,94767.00
2023-05-21T00:01:41.226Z,94765.00
2023-05-21T00:02:41.291Z,94765.00
2023-05-21T00:03:41.370Z,94766.00
2023-05-21T00:04:41.240Z,94766.00
2023-05-21T00:05:41.247Z,94768.00
2023-05-21T00:06:41.185Z,94769.00
2023-05-21T00:07:41.209Z,94770.00
2023-05-21T00:08:41.203Z,94768.00
2023-05-21T00:09:41.261Z,94768.00
2023-05-21T00:10:41.184Z,94769.00
2023-05-21T00:11:41.188Z,94770.00
2023-05-21T00:12:41.158Z,94770.00
2023-05-21T00:13:41.154Z,94772.00
2023-05-21T00:14:41.184Z,94771.00
2023-05-21T00:15:41.217Z,94769.00
2023-05-21T00:16:41.310Z,94767.00
2023-05-21T00:17:41.332Z,94766.00
2023-05-21T00:18:41.382Z,94764.00
2023-05-21T00:19:41.377Z,94763.00
2023-05-21T00:20:41.393Z,94764.00
2023-05-21T00:21:41.389Z,94765.00
2023-05-21T00:22:41.428Z,94765.00
2023-05-21T00:23:41.478Z,94766.00
2023-05-21T00:24:41.518Z,94768.00
2023-05-21T00:25:41.565Z,94765.00
2023-05-21T00:26:41.596Z,94767.00
2023-05-21T00:27:41.605Z,94765.00
2023-05-21T00:28:41.633Z,94768.00
2023-05-21T00:29:44.167Z,94768.00
2023-05-21T00:30:41.685Z,94766.00
2023-05-21T00:31:41.717Z,94770.00
2023-05-21T00:32:41.653Z,94769.00
2023-05-21T00:33:41.670Z,94769.00
2023-05-21T00:34:41.654Z,94768.00
2023-05-21T00:35:41.728Z,94768.00
2023-05-21T00:36:41.668Z,94769.00
2023-05-21T00:37:41.588Z,94768.00
2023-05-21T00:38:41.612Z,94767.00
2023-05-21T00:39:41.597Z,94766.00
2023-05-21T00:40:41.600Z,94766.00
2023-05-21T00:41:41.611Z,94764.00
2023-05-21T00:42:41.627Z,94764.00
2023-05-21T00:43:41.609Z,94761.00
2023-05-21T00:44:41.557Z,94764.00
2023-05-21T00:45:41.564Z,94761.00
2023-05-21T00:46:41.567Z,94763.00
2023-05-21T00:47:41.585Z,94762.00
2023-05-21T00:48:41.534Z,94764.00
2023-05-21T00:49:41.530Z,94766.00
2023-05-21T00:50:41.524Z,94763.00
2023-05-21T00:51:41.505Z,94765.00
2023-05-21T00:52:41.479Z,94765.00
2023-05-21T00:53:41.507Z,94765.00
2023-05-21T00:54:41.491Z,94767.00
2023-05-21T00:55:41.537Z,94766.00
2023-05-21T00:56:41.475Z,94766.00
2023-05-21T00:57:41.482Z,94764.00
2023-05-21T00:58:41.437Z,94767.00
2023-05-21T00:59:41.463Z,94767.00
2023-05-21T01:00:41.454Z,94769.00
2023-05-21T01:01:41.470Z,94771.00
2023-05-21T01:02:41.497Z,94771.00
2023-05-21T01:03:41.503Z,94772.00
2023-05-21T01:04:41.426Z,94769.00
2023-05-21T01:05:41.416Z,94766.00
2023-05-21T01:06:41.429Z,94764.00
2023-05-21T01:07:41.383Z,94766.00
2023-05-21T01:08:41.401Z,94764.00
2023-05-21T01:09:41.381Z,94764.00
2023-05-21T01:10:41.367Z,94760.00
2023-05-21T01:11:41.389Z,94757.00
2023-05-21T01:12:41.379Z,94757.00
2023-05-21T01:13:41.352Z,94759.00
2023-05-21T01:14:41.354Z,94760.00
2023-05-21T01:15:41.332Z,94761.00
2023-05-21T01:16:41.364Z,94760.00
2023-05-21T01:17:41.396Z,94759.00
2023-05-21T01:18:41.403Z,94758.00
2023-05-21T01:19:41.468Z,94755.00
2023-05-21T01:20:41.353Z,94751.00
2023-05-21T01:21:41.291Z,94748.00
2023-05-21T01:22:41.307Z,94747.00
2023-05-21T01:23:41.286Z,94751.00
2023-05-21T01:24:41.361Z,94753.00
2023-05-21T01:25:41.289Z,94754.00
2023-05-21T01:26:41.277Z,94752.00
2023-05-21T01:27:41.311Z,94750.00
2023-05-21T01:28:41.343Z,94750.00
2023-05-21T01:29:41.383Z,94752.00
2023-05-21T01:30:41.400Z,94756.00
2023-05-21T01:31:41.457Z,94755.00
2023-05-21T01:32:41.605Z,94751.00
2023-05-21T01:33:41.645Z,94751.00
2023-05-21T01:34:41.535Z,94752.00
2023-05-21T01:35:41.606Z,94749.00
2023-05-21T01:36:41.624Z,94747.00
2023-05-21T01:37:41.645Z,94745.00
2023-05-21T01:38:41.742Z,94746.00
2023-05-21T01:39:41.749Z,94747.00
2023-05-21T01:40:41.862Z,94749.00
2023-05-21T01:41:41.828Z,94750.00
2023-05-21T01:42:41.832Z,94749.00
2023-05-21T01:43:41.908Z,94748.00
2023-05-21T01:44:41.953Z,94748.00
2023-05-21T01:45:41.961Z,94745.00
2023-05-21T01:46:42.034Z,94746.00
2023-05-21T01:47:42.088Z,94743.00
2023-05-21T01:48:42.102Z,94744.00
2023-05-21T01:49:42.129Z,94744.00
2023-05-21T01:50:42.188Z,94743.00
2023-05-21T01:51:42.203Z,94745.00
2023-05-21T01:52:42.261Z,94744.00
2023-05-21T01:53:42.311Z,94744.00
2023-05-21T01:54:42.327Z,94741.00
2023-05-21T01:55:42.386Z,94737.00
2023-05-21T01:56:42.409Z,94739.00
2023-05-21T01:57:42.472Z,94738.00
2023-05-21T01:58:42.480Z,94741.00
2023-05-21T01:59:42.571Z,94744.00
2023-05-21T02:00:42.578Z,94746.00
2023-05-21T02:01:42.670Z,94748.00
2023-05-21T02:02:42.775Z,94750.00
2023-05-21T02:03:42.758Z,94748.00
2023-05-21T02:04:42.744Z,94747.00
2023-05-21T02:05:42.800Z,94746.00
2023-05-21T02:06:42.825Z,94743.00
2023-05-21T02:07:42.840Z,94743.00
2023-05-21T02:08:42.953Z,94743.00
2023-05-21T02:09:42.967Z,94742.00
2023-05-21T02:10:43.016Z,94747.00
2023-05-21T02:11:43.038Z,94750.00
2023-05-21T02:12:43.073Z,94754.00
2023-05-21T02:13:43.140Z,94751.00
2023-05-21T02:14:43.152Z,94749.00
2023-05-21T02:15:43.206Z,94750.00
2023-05-21T02:16:43.469Z,94751.00
2023-05-21T02:17:43.330Z,94751.00
2023-05-21T02:18:43.440Z,94754.00
2023-05-21T02:19:43.354Z,94755.00
2023-05-21T02:20:43.427Z,94753.00
2023-05-21T02:21:43.424Z,94756.00
2023-05-21T02:22:43.504Z,94754.00
2023-05-21T02:23:43.535Z,94753.00
2023-05-21T02:24:43.575Z,94750.00
2023-05-21T02:25:43.607Z,94751.00
2023-05-21T02:26:43.665Z,94749.00
2023-05-21T02:27:43.742Z,94751.00
2023-05-21T02:28:43.754Z,94752.00
2023-05-21T02:29:43.793Z,94749.00
2023-05-21T02:30:43.852Z,94748.00
2023-05-21T02:31:43.868Z,94745.00
2023-05-21T02:32:43.954Z,94744.00
2023-05-21T02:33:43.968Z,94743.00
2023-05-21T02:34:44.035Z,94744.00
2023-05-21T02:35:44.060Z,94745.00
2023-05-21T02:36:44.060Z,94743.00
2023-05-21T02:37:44.470Z,94740.00
2023-05-21T02:38:44.198Z,94741.00
2023-05-21T02:39:44.232Z,94734.00
2023-05-21T02:40:44.298Z,94736.00
2023-05-21T02:41:44.285Z,94732.00
2023-05-21T02:42:44.345Z,94732.00
2023-05-21T02:43:44.389Z,94733.00
2023-05-21T02:44:44.427Z,94734.00
2023-05-21T02:45:44.504Z,94732.00
2023-05-21T02:46:44.533Z,94730.00
2023-05-21T02:47:44.582Z,94729.00
2023-05-21T02:48:44.581Z,94727.00
2023-05-21T02:49:44.674Z,94727.00
2023-05-21T02:50:44.717Z,94728.00
2023-05-21T02:51:44.745Z,94726.00
2023-05-21T02:52:44.794Z,94728.00
2023-05-21T02:53:44.829Z,94728.00
2023-05-21T02:54:44.878Z,94729.00
2023-05-21T02:55:44.912Z,94732.00
2023-05-21T02:56:44.969Z,94734.00
2023-05-21T02:57:44.987Z,94737.00
2023-05-21T02:58:45.034Z,94736.00
2023-05-21T02:59:45.096Z,94733.00
2023-05-21T03:00:45.153Z,94735.00
2023-05-21T03:02:45.336Z,94742.00
2023-05-21T03:03:45.342Z,94740.00
2023-05-21T03:04:45.318Z,94742.00
2023-05-21T03:05:45.360Z,94741.00
2023-05-21T03:06:45.375Z,94745.00
2023-05-21T03:07:45.436Z,94745.00
2023-05-21T03:08:45.479Z,94743.00
2023-05-21T03:09:45.531Z,94740.00
2023-05-21T03:10:45.607Z,94738.00
2023-05-21T03:11:45.593Z,94739.00
2023-05-21T03:12:45.668Z,94746.00
2023-05-21T03:13:45.762Z,94748.00
2023-05-21T03:14:45.735Z,94748.00
2023-05-21T03:15:45.812Z,94744.00
2023-05-21T03:16:46.065Z,94740.00
2023-05-21T03:17:45.925Z,94740.00
2023-05-21T03:18:45.974Z,94741.00
2023-05-21T03:19:45.996Z,94740.00
2023-05-21T03:20:46.014Z,94742.00
2023-05-21T03:21:46.083Z,94742.00
2023-05-21T03:22:46.119Z,94749.00
2023-05-21T03:23:46.182Z,94750.00
2023-05-21T03:24:46.225Z,94752.00
2023-05-21T03:25:46.291Z,94749.00
2023-05-21T03:26:46.303Z,94738.00
2023-05-21T03:27:46.344Z,94732.00
2023-05-21T03:28:46.423Z,94732.00
2023-05-21T03:29:46.454Z,94735.00
2023-05-21T03:30:46.622Z,94744.00
2023-05-21T03:31:46.574Z,94747.00
2023-05-21T03:32:46.646Z,94749.00
2023-05-21T03:33:46.669Z,94749.00
2023-05-21T03:34:46.697Z,94749.00
2023-05-21T03:35:46.814Z,94751.00
2023-05-21T03:36:46.787Z,94750.00
2023-05-21T03:37:46.867Z,94752.00
2023-05-21T03:38:46.882Z,94752.00
2023-05-21T03:39:46.939Z,94747.00
2023-05-21T03:40:46.969Z,94747.00
2023-05-21T03:41:47.040Z,94747.00
2023-05-21T03:42:47.105Z,94752.00
2023-05-21T03:43:47.142Z,94759.00
2023-05-21T03:44:47.178Z,94763.00
2023-05-21T03:45:47.264Z,94760.00
2023-05-21T03:46:47.241Z,94757.00
2023-05-21T03:47:47.369Z,94755.00
2023-05-21T03:48:47.357Z,94757.00
2023-05-21T03:49:47.396Z,94760.00
2023-05-21T03:50:47.486Z,94763.00
2023-05-21T03:51:47.503Z,94758.00
2023-05-21T03:52:47.571Z,94753.00
2023-05-21T03:53:47.600Z,94756.00
2023-05-21T03:54:47.639Z,94755.00
2023-05-21T03:55:47.722Z,94757.00
2023-05-21T03:56:47.715Z,94756.00
2023-05-21T03:57:47.759Z,94754.00
2023-05-21T03:58:47.822Z,94751.00
2023-05-21T03:59:47.866Z,94747.00
2023-05-21T04:00:47.916Z,94750.00
2023-05-21T04:01:47.952Z,94752.00
2023-05-21T04:02:48.121Z,94756.00
2023-05-21T04:03:48.243Z,94759.00
2023-05-21T04:04:48.266Z,94758.00
2023-05-21T04:05:48.165Z,94762.00
2023-05-21T04:06:48.239Z,94764.00
2023-05-21T04:07:48.250Z,94766.00
2023-05-21T04:08:48.316Z,94766.00
2023-05-21T04:09:48.326Z,94759.00
2023-05-21T04:10:48.405Z,94762.00
2023-05-21T04:11:49.264Z,94765.00
2023-05-21T04:12:48.484Z,94773.00
2023-05-21T04:13:48.509Z,94777.00
2023-05-21T04:14:48.590Z,94780.00
2023-05-21T04:15:48.688Z,94775.00
2023-05-21T04:16:48.653Z,94774.00
2023-05-21T04:17:48.728Z,94769.00
2023-05-21T04:18:48.826Z,94773.00
2023-05-21T04:19:48.833Z,94779.00
2023-05-21T04:20:48.983Z,94786.00
2023-05-21T04:21:48.889Z,94790.00
2023-05-21T04:22:48.956Z,94790.00
2023-05-21T04:23:49.005Z,94788.00
2023-05-21T04:24:49.043Z,94787.00
2023-05-21T04:25:49.106Z,94787.00
2023-05-21T04:26:49.164Z,94789.00
2023-05-21T04:27:49.199Z,94790.00
2023-05-21T04:28:49.240Z,94788.00
2023-05-21T04:29:50.764Z,94787.00
2023-05-21T04:30:49.324Z,94784.00
2023-05-21T04:31:49.462Z,94786.00
2023-05-21T04:32:49.458Z,94788.00
2023-05-21T04:33:49.481Z,94787.00
2023-05-21T04:34:49.517Z,94787.00
2023-05-21T04:35:49.597Z,94784.00
2023-05-21T04:36:49.585Z,94784.00
2023-05-21T04:37:49.671Z,94782.00
2023-05-21T04:38:49.701Z,94778.00
2023-05-21T04:39:49.763Z,94777.00
2023-05-21T04:40:49.812Z,94781.00
2023-05-21T04:41:49.856Z,94781.00
2023-05-21T04:42:49.922Z,94780.00
2023-05-21T04:43:49.962Z,94781.00
2023-05-21T04:44:50.065Z,94778.00
2023-05-21T04:45:50.046Z,94774.00
2023-05-21T04:46:50.123Z,94774.00
2023-05-21T04:47:50.202Z,94773.00
2023-05-21T04:48:50.163Z,94774.00
2023-05-21T04:49:50.219Z,94776.00
2023-05-21T04:50:50.280Z,94775.00
2023-05-21T04:51:50.313Z,94775.00
2023-05-21T04:52:50.361Z,94776.00
2023-05-21T04:53:50.413Z,94773.00
2023-05-21T04:54:50.483Z,94773.00
2023-05-21T04:55:50.524Z,94770.00
2023-05-21T04:56:50.534Z,94769.00
2023-05-21T04:57:50.639Z,94767.00
2023-05-21T04:58:50.661Z,94768.00
2023-05-21T04:59:50.725Z,94767.00
2023-05-21T05:00:50.901Z,94768.00
2023-05-21T05:01:50.779Z,94772.00
2023-05-21T05:02:50.963Z,94774.00
2023-05-21T05:03:50.950Z,94778.00
2023-05-21T05:04:50.895Z,94776.00
2023-05-21T05:05:50.967Z,94773.00
2023-05-21T05:06:51.002Z,94769.00
2023-05-21T05:07:51.066Z,94767.00
2023-05-21T05:08:51.076Z,94765.00
2023-05-21T05:09:51.164Z,94765.00
2023-05-21T05:10:51.176Z,94765.00
2023-05-21T05:11:51.230Z,94763.00
2023-05-21T05:12:51.257Z,94763.00
2023-05-21T05:13:51.309Z,94763.00
2023-05-21T05:14:51.374Z,94762.00
2023-05-21T05:15:52.607Z,94761.00
2023-05-21T05:16:51.594Z,94759.00
2023-05-21T05:17:51.440Z,94760.00
2023-05-21T05:18:51.442Z,94763.00
2023-05-21T05:19:51.375Z,94763.00
2023-05-21T05:20:51.369Z,94763.00
2023-05-21T05:21:51.355Z,94763.00
2023-05-21T05:22:51.385Z,94761.00
2023-05-21T05:23:51.351Z,94757.00
2023-05-21T05:24:51.318Z,94758.00
2023-05-21T05:25:51.307Z,94757.00
2023-05-21T05:26:51.316Z,94761.00
2023-05-21T05:27:51.330Z,94763.00
2023-05-21T05:28:51.318Z,94758.00
2023-05-21T05:29:51.305Z,94760.00
2023-05-21T05:30:51.349Z,94758.00
2023-05-21T05:31:51.281Z,94758.00
2023-05-21T05:32:51.387Z,94758.00
2023-05-21T05:33:51.284Z,94758.00
2023-05-21T05:34:51.277Z,94758.00
2023-05-21T05:35:51.280Z,94762.00
2023-05-21T05:36:51.263Z,94760.00
2023-05-21T05:37:51.263Z,94760.00
2023-05-21T05:38:51.243Z,94760.00
2023-05-21T05:39:51.250Z,94758.00
2023-05-21T05:40:51.224Z,94756.00
2023-05-21T05:41:51.206Z,94754.00
2023-05-21T05:42:51.212Z,94753.00
2023-05-21T05:43:51.208Z,94751.00
2023-05-21T05:44:51.201Z,94750.00
2023-05-21T05:45:51.217Z,94752.00
2023-05-21T05:46:51.169Z,94752.00
2023-05-21T05:47:51.193Z,94751.00
2023-05-21T05:48:51.158Z,94755.00
2023-05-21T05:49:51.145Z,94752.00
2023-05-21T05:50:51.177Z,94754.00
2023-05-21T05:51:51.147Z,94755.00
2023-05-21T05:52:51.128Z,94755.00
2023-05-21T05:53:51.131Z,94757.00
2023-05-21T05:54:51.122Z,94755.00
2023-05-21T05:55:51.118Z,94754.00
2023-05-21T05:56:52.883Z,94754.00
2023-05-21T05:57:51.098Z,94753.00
2023-05-21T05:58:51.107Z,94755.00
2023-05-21T05:59:51.093Z,94757.00
2023-05-21T06:00:51.177Z,94758.00
2023-05-21T06:01:51.206Z,94758.00
2023-05-21T06:02:51.353Z,94758.00
2023-05-21T06:03:51.388Z,94754.00
2023-05-21T06:04:51.323Z,94753.00
2023-05-21T06:05:51.453Z,94754.00
2023-05-21T06:06:51.442Z,94756.00
2023-05-21T06:07:51.472Z,94758.00
2023-05-21T06:08:51.510Z,94760.00
2023-05-21T06:09:51.567Z,94759.00
2023-05-21T06:10:51.592Z,94758.00
2023-05-21T06:11:51.636Z,94756.00
2023-05-21T06:12:51.710Z,94752.00
2023-05-21T06:13:51.734Z,94751.00
2023-05-21T06:14:51.799Z,94749.00
2023-05-21T06:15:51.862Z,94746.00
2023-05-21T06:16:51.861Z,94748.00
2023-05-21T06:17:51.951Z,94749.00
2023-05-21T06:18:51.955Z,94753.00
2023-05-21T06:19:51.987Z,94750.00
2023-05-21T06:20:52.066Z,94750.00
2023-05-21T06:21:52.054Z,94749.00
2023-05-21T06:22:52.074Z,94746.00
2023-05-21T06:23:52.154Z,94742.00
2023-05-21T06:24:52.177Z,94739.00
2023-05-21T06:25:52.197Z,94738.00
2023-05-21T06:26:52.232Z,94736.00
2023-05-21T06:27:52.286Z,94738.00
2023-05-21T06:28:52.333Z,94739.00
2023-05-21T06:29:52.401Z,94738.00
2023-05-21T06:30:52.406Z,94737.00
2023-05-21T06:31:52.428Z,94736.00
2023-05-21T06:32:52.662Z,94734.00
2023-05-21T06:33:52.637Z,94730.00
2023-05-21T06:34:52.546Z,94728.00
2023-05-21T06:35:52.602Z,94727.00
2023-05-21T06:36:52.638Z,94723.00
2023-05-21T06:37:52.662Z,94728.00
2023-05-21T06:38:52.710Z,94729.00
2023-05-21T06:39:52.761Z,94730.00
2023-05-21T06:40:52.780Z,94726.00
2023-05-21T06:41:52.830Z,94729.00
2023-05-21T06:42:52.871Z,94728.00
2023-05-21T06:43:52.923Z,94727.00
2023-05-21T06:44:52.934Z,94725.00
2023-05-21T06:45:53.043Z,94724.00
2023-05-21T06:46:53.003Z,94723.00
2023-05-21T06:47:53.071Z,94727.00
2023-05-21T06:48:53.070Z,94723.00
2023-05-21T06:49:53.113Z,94725.00
2023-05-21T06:50:53.168Z,94729.00
2023-05-21T06:51:53.189Z,94734.00
2023-05-21T06:52:53.226Z,94733.00
2023-05-21T06:53:53.269Z,94731.00
2023-05-21T06:54:53.299Z,94730.00
2023-05-21T06:55:53.372Z,94730.00
2023-05-21T06:56:53.400Z,94732.00
2023-05-21T06:57:53.436Z,94734.00
2023-05-21T06:58:53.459Z,94736.00
2023-05-21T06:59:53.485Z,94738.00
2023-05-21T07:00:53.522Z,94737.00
2023-05-21T07:01:53.602Z,94737.00
2023-05-21T07:02:53.754Z,94737.00
2023-05-21T07:03:53.638Z,94739.00
2023-05-21T07:04:53.690Z,94739.00
2023-05-21T07:05:53.727Z,94733.00
2023-05-21T07:06:53.725Z,94733.00
2023-05-21T07:07:53.799Z,94731.00
2023-05-21T07:08:53.816Z,94729.00
2023-05-21T07:09:53.867Z,94729.00
2023-05-21T07:10:53.945Z,94730.00
2023-05-21T07:11:53.953Z,94727.00
2023-05-21T07:12:53.998Z,94722.00
2023-05-21T07:13:54.030Z,94724.00
2023-05-21T07:14:54.049Z,94724.00
2023-05-21T07:15:54.104Z,94722.00
2023-05-21T07:16:54.139Z,94724.00
2023-05-21T07:17:54.195Z,94723.00
2023-05-21T07:18:54.234Z,94722.00
2023-05-21T07:19:54.245Z,94719.00
2023-05-21T07:20:54.283Z,94720.00
2023-05-21T07:21:54.304Z,94716.00
2023-05-21T07:22:54.344Z,94714.00
2023-05-21T07:23:54.392Z,94711.00
2023-05-21T07:24:54.380Z,94712.00
2023-05-21T07:25:54.429Z,94710.00
2023-05-21T07:26:54.466Z,94707.00
2023-05-21T07:27:54.511Z,94705.00
2023-05-21T07:28:54.541Z,94702.00
2023-05-21T07:29:54.562Z,94701.00
2023-05-21T07:30:54.676Z,94699.00
2023-05-21T07:31:54.659Z,94699.00
2023-05-21T07:32:54.728Z,94697.00
2023-05-21T07:33:54.699Z,94701.00
2023-05-21T07:34:54.710Z,94699.00
2023-05-21T07:35:54.784Z,94699.00
2023-05-21T07:36:54.776Z,94700.00
2023-05-21T07:37:54.903Z,94698.00
2023-05-21T07:38:54.832Z,94697.00
2023-05-21T07:39:54.936Z,94696.00
2023-05-21T07:40:54.937Z,94693.00
2023-05-21T07:41:54.944Z,94691.00
2023-05-21T07:42:54.960Z,94692.00
2023-05-21T07:43:54.997Z,94690.00
2023-05-21T07:44:55.028Z,94688.00
2023-05-21T07:45:55.136Z,94689.00
2023-05-21T07:46:55.096Z,94691.00
2023-05-21T07:47:55.122Z,94689.00
2023-05-21T07:48:55.132Z,94692.00
2023-05-21T07:49:55.177Z,94693.00
2023-05-21T07:50:55.233Z,94694.00
2023-05-21T07:51:55.246Z,94693.00
2023-05-21T07:52:55.249Z,94688.00
2023-05-21T07:53:55.469Z,94690.00
2023-05-21T07:54:55.303Z,94686.00
2023-05-21T07:55:55.347Z,94680.00
2023-05-21T07:56:55.349Z,94677.00
2023-05-21T07:57:55.373Z,94675.00
2023-05-21T07:58:55.371Z,94674.00
2023-05-21T07:59:55.386Z,94674.00
2023-05-21T08:00:55.475Z,94674.00
2023-05-21T08:01:55.474Z,94673.00
2023-05-21T08:02:55.609Z,94675.00
2023-05-21T08:03:55.611Z,94676.00
2023-05-21T08:04:55.582Z,94675.00
2023-05-21T08:05:55.588Z,94676.00
2023-05-21T08:06:55.585Z,94677.00
2023-05-21T08:07:55.635Z,94676.00
2023-05-21T08:08:55.638Z,94674.00
2023-05-21T08:09:55.659Z,94673.00
2023-05-21T08:10:55.687Z,94672.00
2023-05-21T08:11:55.732Z,94671.00
2023-05-21T08:12:55.723Z,94669.00
2023-05-21T08:13:55.762Z,94670.00
2023-05-21T08:14:55.784Z,94670.00
2023-05-21T08:15:55.846Z,94671.00
2023-05-21T08:16:55.849Z,94669.00
2023-05-21T08:17:55.921Z,94668.00
2023-05-21T08:18:55.984Z,94668.00
2023-05-21T08:19:55.900Z,94667.00
2023-05-21T08:20:55.955Z,94665.00
2023-05-21T08:21:55.966Z,94666.00
2023-05-21T08:22:56.014Z,94665.00
2023-05-21T08:23:56.016Z,94665.00
2023-05-21T08:24:56.056Z,94663.00
2023-05-21T08:25:56.089Z,94663.00
2023-05-21T08:26:56.116Z,94661.00
2023-05-21T08:27:56.142Z,94661.00
2023-05-21T08:28:56.189Z,94658.00
2023-05-21T08:29:56.225Z,94659.00
2023-05-21T08:30:56.215Z,94658.00
2023-05-21T08:31:56.306Z,94656.00
2023-05-21T08:32:56.316Z,94654.00
2023-05-21T08:33:56.328Z,94653.00
2023-05-21T08:34:56.348Z,94650.00
2023-05-21T08:35:56.384Z,94648.00
2023-05-21T08:36:56.385Z,94649.00
2023-05-21T08:37:56.441Z,94648.00
2023-05-21T08:38:56.452Z,94648.00
2023-05-21T08:39:56.486Z,94649.00
2023-05-21T08:40:56.531Z,94647.00
2023-05-21T08:41:56.564Z,94643.00
2023-05-21T08:42:56.549Z,94640.00
2023-05-21T08:43:56.635Z,94640.00
2023-05-21T08:44:56.627Z,94640.00
2023-05-21T08:45:56.684Z,94638.00
2023-05-21T08:46:56.648Z,94639.00
2023-05-21T08:47:56.731Z,94638.00
2023-05-21T08:48:56.715Z,94638.00
2023-05-21T08:49:56.732Z,94640.00
2023-05-21T08:50:56.739Z,94639.00
2023-05-21T08:51:56.782Z,94637.00
2023-05-21T08:52:56.808Z,94634.00
2023-05-21T08:53:56.815Z,94636.00
2023-05-21T08:54:56.867Z,94636.00
2023-05-21T08:55:56.862Z,94635.00
2023-05-21T08:56:56.865Z,94633.00
2023-05-21T08:57:56.910Z,94634.00
2023-05-21T08:58:56.947Z,94634.00
2023-05-21T08:59:56.942Z,94635.00
2023-05-21T09:00:56.980Z,94635.00
2023-05-21T09:01:57.088Z,94634.00
2023-05-21T09:02:57.010Z,94632.00
2023-05-21T09:04:04.913Z,94631.00
2023-05-21T09:04:57.978Z,94632.00
2023-05-21T09:05:57.000Z,94628.00
2023-05-21T09:06:57.009Z,94625.00
2023-05-21T09:07:56.971Z,94621.00
2023-05-21T09:08:56.946Z,94623.00
2023-05-21T09:09:56.951Z,94623.00
2023-05-21T09:10:56.927Z,94619.00
2023-05-21T09:11:56.924Z,94623.00
2023-05-21T09:12:56.954Z,94621.00
2023-05-21T09:13:56.952Z,94626.00
2023-05-21T09:14:56.917Z,94632.00
2023-05-21T09:15:56.909Z,94635.00
2023-05-21T09:16:57.059Z,94633.00
2023-05-21T09:17:56.987Z,94636.00
2023-05-21T09:18:56.974Z,94643.00
2023-05-21T09:19:56.887Z,94630.00
2023-05-21T09:20:56.901Z,94628.00
2023-05-21T09:21:56.885Z,94621.00
2023-05-21T09:22:56.848Z,94635.00
2023-05-21T09:23:56.889Z,94640.00
2023-05-21T09:24:56.837Z,94641.00
2023-05-21T09:25:56.864Z,94641.00
2023-05-21T09:26:56.857Z,94637.00
2023-05-21T09:27:56.811Z,94639.00
2023-05-21T09:28:56.835Z,94638.00
2023-05-21T09:29:56.834Z,94640.00
2023-05-21T09:30:56.875Z,94642.00
2023-05-21T09:31:56.911Z,94641.00
2023-05-21T09:32:56.830Z,94644.00
2023-05-21T09:33:56.809Z,94644.00
2023-05-21T09:34:56.822Z,94641.00
2023-05-21T09:35:56.761Z,94643.00
2023-05-21T09:36:56.774Z,94648.00
2023-05-21T09:37:56.778Z,94652.00
2023-05-21T09:38:56.785Z,94647.00
2023-05-21T09:39:56.768Z,94645.00
2023-05-21T09:40:56.850Z,94638.00
2023-05-21T09:41:56.756Z,94647.00
2023-05-21T09:42:56.737Z,94650.00
2023-05-21T09:43:56.741Z,94644.00
2023-05-21T09:44:56.787Z,94644.00
2023-05-21T09:45:58.337Z,94647.00
2023-05-21T09:46:56.733Z,94642.00
2023-05-21T09:47:56.774Z,94647.00
2023-05-21T09:48:56.750Z,94637.00
2023-05-21T09:49:56.707Z,94632.00
2023-05-21T09:50:56.746Z,94637.00
2023-05-21T09:51:56.739Z,94633.00
2023-05-21T09:52:56.768Z,94639.00
2023-05-21T09:53:56.706Z,94637.00
2023-05-21T09:54:56.704Z,94638.00
2023-05-21T09:55:56.694Z,94653.00
2023-05-21T09:56:56.707Z,94648.00
2023-05-21T09:57:56.709Z,94645.00
2023-05-21T09:58:56.673Z,94654.00
2023-05-21T09:59:56.681Z,94647.00
2023-05-21T10:00:56.682Z,94646.00
2023-05-21T10:01:56.692Z,94643.00
2023-05-21T10:02:56.696Z,94646.00
2023-05-21T10:03:56.700Z,94644.00
2023-05-21T10:04:56.634Z,94652.00
2023-05-21T10:05:56.614Z,94646.00
2023-05-21T10:06:56.616Z,94647.00
2023-05-21T10:07:56.597Z,94642.00
2023-05-21T10:08:56.608Z,94646.00
2023-05-21T10:09:56.602Z,94655.00
2023-05-21T10:10:56.611Z,94643.00
2023-05-21T10:11:56.583Z,94644.00
2023-05-21T10:12:56.569Z,94644.00
2023-05-21T10:13:56.573Z,94640.00
2023-05-21T10:14:56.518Z,94644.00
2023-05-21T10:15:56.587Z,94644.00
2023-05-21T10:16:56.520Z,94644.00
2023-05-21T10:17:56.607Z,94643.00
2023-05-21T10:18:56.575Z,94643.00
2023-05-21T10:19:56.529Z,94635.00
2023-05-21T10:20:56.536Z,94639.00
2023-05-21T10:21:56.500Z,94643.00
2023-05-21T10:22:56.517Z,94646.00
2023-05-21T10:23:56.532Z,94642.00
2023-05-21T10:24:56.466Z,94639.00
2023-05-21T10:25:56.493Z,94630.00
2023-05-21T10:26:56.471Z,94631.00
2023-05-21T10:27:56.488Z,94636.00
2023-05-21T10:28:56.492Z,94630.00
2023-05-21T10:29:56.455Z,94627.00
2023-05-21T10:30:56.440Z,94628.00
2023-05-21T10:31:56.487Z,94628.00
2023-05-21T10:32:56.560Z,94630.00
2023-05-21T10:33:56.444Z,94625.00
2023-05-21T10:34:56.536Z,94619.00
2023-05-21T10:35:56.410Z,94616.00
2023-05-21T10:36:56.426Z,94618.00
2023-05-21T10:37:56.408Z,94624.00
2023-05-21T10:38:56.409Z,94622.00
2023-05-21T10:39:56.373Z,94621.00
2023-05-21T10:40:56.382Z,94615.00
2023-05-21T10:41:59.034Z,94614.00
2023-05-21T10:42:56.366Z,94609.00
2023-05-21T10:43:56.362Z,94605.00
2023-05-21T10:44:56.362Z,94613.00
2023-05-21T10:45:56.400Z,94608.00
2023-05-21T10:46:56.309Z,94603.00
2023-05-21T10:47:56.419Z,94610.00
2023-05-21T10:48:56.299Z,94602.00
2023-05-21T10:49:56.317Z,94604.00
2023-05-21T10:50:56.311Z,94602.00
2023-05-21T10:51:56.295Z,94600.00
2023-05-21T10:52:56.307Z,94596.00
2023-05-21T10:53:56.287Z,94595.00
2023-05-21T10:54:56.318Z,94598.00
2023-05-21T10:55:56.458Z,94594.00
2023-05-21T10:56:56.290Z,94605.00
2023-05-21T10:57:56.273Z,94594.00
2023-05-21T10:58:56.240Z,94594.00
2023-05-21T10:59:56.219Z,94595.00
2023-05-21T11:00:56.281Z,94593.00
2023-05-21T11:01:56.213Z,94593.00
2023-05-21T11:02:56.379Z,94597.00
2023-05-21T11:03:56.256Z,94594.00
2023-05-21T11:04:56.223Z,94590.00
2023-05-21T11:05:56.272Z,94592.00
2023-05-21T11:06:56.202Z,94592.00
2023-05-21T11:07:56.257Z,94592.00
2023-05-21T11:08:56.174Z,94589.00
2023-05-21T11:09:56.175Z,94594.00
2023-05-21T11:10:56.137Z,94591.00
2023-05-21T11:11:56.139Z,94591.00
2023-05-21T11:12:56.159Z,94588.00
2023-05-21T11:13:56.130Z,94589.00
2023-05-21T11:14:56.150Z,94589.00
2023-05-21T11:15:56.117Z,94591.00
2023-05-21T11:16:56.184Z,94590.00
2023-05-21T11:17:56.113Z,94593.00
2023-05-21T11:18:56.103Z,94592.00
2023-05-21T11:19:56.164Z,94591.00
2023-05-21T11:20:56.212Z,94589.00
2023-05-21T11:21:56.276Z,94590.00
2023-05-21T11:22:56.354Z,94588.00
2023-05-21T11:23:56.373Z,94595.00
2023-05-21T11:24:56.442Z,94593.00
2023-05-21T11:25:56.492Z,94590.00
2023-05-21T11:26:56.553Z,94584.00
2023-05-21T11:27:56.641Z,94588.00
2023-05-21T11:28:56.684Z,94581.00
2023-05-21T11:29:56.731Z,94592.00
2023-05-21T11:30:56.806Z,94588.00
2023-05-21T11:31:56.865Z,94583.00
2023-05-21T11:32:56.973Z,94588.00
2023-05-21T11:33:56.974Z,94586.00
2023-05-21T11:34:57.025Z,94584.00
2023-05-21T11:35:57.078Z,94578.00
2023-05-21T11:36:57.134Z,94586.00
2023-05-21T11:37:57.217Z,94584.00
2023-05-21T11:38:57.271Z,94579.00
2023-05-21T11:39:57.319Z,94576.00
2023-05-21T11:40:57.390Z,94578.00
2023-05-21T11:41:57.452Z,94577.00
2023-05-21T11:42:57.507Z,94582.00
2023-05-21T11:43:57.530Z,94579.00
2023-05-21T11:44:57.609Z,94579.00
2023-05-21T11:45:57.651Z,94580.00